Time;durP1;ratioP1;P1;durP2;ratioP2;P2;SDS_P1;SDS_P2;PMS_P1;PMS_P2;Temp;Humidity;BMP_temperature;BMP_pressure;BME280_temperature;BME280_humidity;BME280_pressure;Samples;Min_cycle;Max_cycle;Signal;HPM_P1;HPM_P2
2023/01/28 00:01:25;;;;;;;5.30;4.82;;;2.10;99.90;;;;;;6205765;23;20191;-72
2023/01/28 00:03:54;;;;;;;5.28;4.82;;;2.10;99.90;;;;;;6206256;23;20194;-71
2023/01/28 00:06:21;;;;;;;5.05;4.55;;;2.10;99.90;;;;;;6200132;23;20214;-72
2023/01/28 00:08:48;;;;;;;5.25;4.80;;;2.10;99.90;;;;;;6195332;23;20719;-70
2023/01/28 00:11:15;;;;;;;5.40;4.90;;;2.10;99.90;;;;;;6224959;23;20278;-71
2023/01/28 00:13:43;;;;;;;5.57;4.82;;;2.20;99.90;;;;;;6199893;23;20192;-71
2023/01/28 00:16:10;;;;;;;5.38;4.88;;;2.20;99.90;;;;;;6224944;23;20186;-71
2023/01/28 00:18:38;;;;;;;6.10;5.50;;;2.20;99.90;;;;;;6239342;23;20210;-70
2023/01/28 00:21:09;;;;;;;5.50;4.70;;;2.20;99.90;;;;;;6240013;23;20266;-70
2023/01/28 00:23:38;;;;;;;5.65;5.15;;;2.20;99.90;;;;;;6209780;23;20201;-70
2023/01/28 00:26:07;;;;;;;6.25;5.65;;;2.20;99.90;;;;;;6208646;23;20243;-70
2023/01/28 00:28:35;;;;;;;7.70;5.43;;;2.30;99.90;;;;;;6204184;23;20239;-71
2023/01/28 00:31:08;;;;;;;5.88;5.28;;;2.30;99.90;;;;;;6205037;23;20682;-70
2023/01/28 00:33:36;;;;;;;5.90;5.40;;;2.30;99.90;;;;;;6201805;23;20633;-70
2023/01/28 00:36:06;;;;;;;6.15;5.55;;;2.30;99.90;;;;;;6209253;23;20261;-71
2023/01/28 00:38:33;;;;;;;5.53;4.95;;;2.30;99.90;;;;;;6207535;23;20191;-71
2023/01/28 00:41:08;;;;;;;5.90;5.35;;;2.30;99.90;;;;;;6200396;23;20205;-72
2023/01/28 00:43:35;;;;;;;6.05;5.40;;;2.30;99.90;;;;;;6178576;23;20199;-71
2023/01/28 00:46:03;;;;;;;6.07;5.40;;;2.30;99.90;;;;;;6180055;23;20654;-71
2023/01/28 00:48:30;;;;;;;6.80;6.05;;;2.30;99.90;;;;;;6184328;23;20195;-71
2023/01/28 00:50:57;;;;;;;8.43;6.55;;;2.30;99.90;;;;;;6189332;23;20191;-70
2023/01/28 00:53:25;;;;;;;6.95;6.25;;;2.30;99.90;;;;;;6194184;23;20219;-71
2023/01/28 00:55:53;;;;;;;8.77;6.47;;;2.30;99.90;;;;;;6199356;23;20204;-71
2023/01/28 00:58:21;;;;;;;6.95;5.60;;;2.40;99.90;;;;;;6191712;23;20208;-71
2023/01/28 01:00:48;;;;;;;5.88;5.28;;;2.40;99.90;;;;;;6188733;23;20274;-71
2023/01/28 01:03:15;;;;;;;4.97;4.50;;;2.40;99.90;;;;;;6197613;23;20243;-71
2023/01/28 01:05:42;;;;;;;4.97;4.47;;;2.40;99.90;;;;;;6200371;23;20272;-71
2023/01/28 01:08:10;;;;;;;5.43;4.60;;;2.40;99.90;;;;;;6193281;23;20246;-71
2023/01/28 01:10:38;;;;;;;4.18;3.85;;;2.40;99.90;;;;;;6201132;23;20184;-71
2023/01/28 01:13:06;;;;;;;4.95;4.45;;;2.30;99.90;;;;;;6194012;23;20223;-71
2023/01/28 01:15:33;;;;;;;4.95;4.38;;;2.30;99.90;;;;;;6207526;23;20593;-71
2023/01/28 01:18:00;;;;;;;5.13;4.63;;;2.40;99.90;;;;;;6206311;23;20214;-71
2023/01/28 01:20:32;;;;;;;4.93;4.47;;;2.30;99.90;;;;;;6203170;23;20191;-71
2023/01/28 01:22:59;;;;;;;4.60;4.20;;;2.40;99.90;;;;;;6187620;23;20209;-71
2023/01/28 01:25:26;;;;;;;4.82;4.10;;;2.40;99.90;;;;;;6184141;23;20190;-71
2023/01/28 01:27:54;;;;;;;4.78;4.30;;;2.40;99.90;;;;;;6201975;23;20742;-71
2023/01/28 01:30:22;;;;;;;5.05;4.55;;;2.40;99.90;;;;;;6199427;23;20266;-71
2023/01/28 01:32:48;;;;;;;4.78;4.38;;;2.40;99.90;;;;;;6204263;23;20217;-71
2023/01/28 01:35:15;;;;;;;4.93;4.53;;;2.40;99.90;;;;;;6200551;23;20273;-71
2023/01/28 01:37:44;;;;;;;4.70;4.30;;;2.40;99.90;;;;;;6205772;23;20616;-71
2023/01/28 01:40:12;;;;;;;4.30;3.90;;;2.40;99.90;;;;;;6208779;23;20191;-71
2023/01/28 01:42:39;;;;;;;4.47;4.07;;;2.40;99.90;;;;;;6204408;23;20200;-71
2023/01/28 01:45:12;;;;;;;4.45;4.07;;;2.40;99.90;;;;;;6209137;23;20215;-71
2023/01/28 01:47:43;;;;;;;4.05;3.63;;;2.40;99.90;;;;;;6208572;23;20214;-71
2023/01/28 01:50:19;;;;;;;4.45;4.05;;;2.40;99.90;;;;;;6206468;23;20214;-71
2023/01/28 01:52:49;;;;;;;5.32;3.97;;;2.40;99.90;;;;;;6197393;23;20203;-71
2023/01/28 01:55:21;;;;;;;4.35;3.95;;;2.40;99.90;;;;;;6194711;23;20283;-71
2023/01/28 01:57:50;;;;;;;4.00;3.60;;;2.40;99.90;;;;;;6183389;23;20263;-71
2023/01/28 02:00:19;;;;;;;4.00;3.70;;;2.40;99.90;;;;;;6229092;23;20514;-71
2023/01/28 02:02:48;;;;;;;3.40;3.10;;;2.40;99.90;;;;;;6186397;23;20192;-70
2023/01/28 02:05:18;;;;;;;3.83;3.47;;;2.40;99.90;;;;;;6198489;23;20193;-71
2023/01/28 02:07:47;;;;;;;4.05;3.65;;;2.40;99.90;;;;;;6193725;23;20294;-71
2023/01/28 02:10:15;;;;;;;4.30;3.90;;;2.30;99.90;;;;;;6191689;23;20200;-71
2023/01/28 02:12:44;;;;;;;4.45;4.05;;;2.30;99.90;;;;;;6201625;23;20230;-71
2023/01/28 02:15:16;;;;;;;4.55;4.15;;;2.30;99.90;;;;;;6189050;23;20602;-71
2023/01/28 02:17:45;;;;;;;3.70;3.40;;;2.40;99.90;;;;;;6206245;23;20206;-71
2023/01/28 02:20:14;;;;;;;4.25;3.85;;;2.40;99.90;;;;;;6206682;23;20186;-71
2023/01/28 02:23:23;;;;;;;4.10;3.80;;;2.30;99.90;;;;;;6206892;23;20235;-71
2023/01/28 02:26:19;;;;;;;4.28;3.72;;;2.30;99.90;;;;;;6191816;23;20192;-70
2023/01/28 02:28:52;;;;;;;4.25;3.85;;;2.30;99.90;;;;;;6198292;23;20265;-71
2023/01/28 02:31:23;;;;;;;3.70;3.40;;;2.30;99.90;;;;;;6192770;23;20196;-71
2023/01/28 02:33:54;;;;;;;4.47;4.05;;;2.30;99.90;;;;;;6196446;23;20216;-71
2023/01/28 02:36:28;;;;;;;4.15;3.75;;;2.30;99.90;;;;;;6178782;23;20782;-71
2023/01/28 02:39:00;;;;;;;4.40;4.00;;;2.30;99.90;;;;;;6201583;23;20570;-71
2023/01/28 02:41:34;;;;;;;5.18;4.75;;;2.30;99.90;;;;;;6197718;23;20193;-71
2023/01/28 02:44:03;;;;;;;3.67;3.38;;;2.30;99.90;;;;;;6206020;23;20267;-71
2023/01/28 02:49:25;;;;;;;4.50;4.10;;;2.30;99.90;;;;;;6204186;23;20807;-70
2023/01/28 02:53:39;;;;;;;4.35;3.95;;;2.30;99.90;;;;;;6184284;23;20239;-71
2023/01/28 02:55:20;;;;;;;3.92;3.60;;;2.30;99.90;;;;;;6195142;23;20379;-71
2023/01/28 02:57:58;;;;;;;4.38;3.97;;;2.30;99.90;;;;;;6185487;23;20776;-71
2023/01/28 03:00:36;;;;;;;4.35;3.95;;;2.30;99.90;;;;;;6195619;23;20199;-71
2023/01/28 03:03:12;;;;;;;5.55;5.05;;;2.30;99.90;;;;;;6194609;23;20186;-71
2023/01/28 03:06:02;;;;;;;5.60;4.55;;;2.30;99.90;;;;;;6206464;23;20643;-71
2023/01/28 03:39:06;;;;;;;6.43;5.82;;;2.30;99.90;;;;;;6196393;23;20235;-71
2023/01/28 03:41:33;;;;;;;7.82;7.03;;;2.30;99.90;;;;;;6209007;23;20273;-71
2023/01/28 03:46:44;;;;;;;7.28;6.57;;;2.20;99.90;;;;;;6180213;23;20217;-71
2023/01/28 03:49:13;;;;;;;6.97;6.38;;;2.20;99.90;;;;;;6184918;23;20274;-71
2023/01/28 03:51:40;;;;;;;6.35;5.78;;;2.20;99.90;;;;;;6194719;23;20210;-71
2023/01/28 03:54:07;;;;;;;6.60;6.00;;;2.30;99.90;;;;;;6207957;23;20192;-71
2023/01/28 03:56:36;;;;;;;6.38;5.78;;;2.30;99.90;;;;;;6196906;23;20228;-71
2023/01/28 03:59:03;;;;;;;6.47;5.88;;;2.30;99.90;;;;;;6190983;23;20222;-71
2023/01/28 04:01:30;;;;;;;6.35;5.75;;;2.30;99.90;;;;;;6180602;23;20269;-71
2023/01/28 04:03:57;;;;;;;6.38;5.78;;;2.30;99.90;;;;;;6180132;23;20191;-71
2023/01/28 04:06:25;;;;;;;6.07;5.57;;;2.30;99.90;;;;;;6199009;23;20293;-70
2023/01/28 04:08:53;;;;;;;6.60;6.00;;;2.40;99.90;;;;;;6203300;23;20290;-70
2023/01/28 04:11:20;;;;;;;6.07;5.57;;;2.40;99.90;;;;;;6193569;23;20199;-70
2023/01/28 04:13:48;;;;;;;7.15;6.45;;;2.40;99.90;;;;;;6183111;23;20714;-71
2023/01/28 04:16:17;;;;;;;7.05;6.40;;;2.40;99.90;;;;;;6195379;23;20208;-71
2023/01/28 04:18:44;;;;;;;6.32;5.72;;;2.40;99.90;;;;;;6222470;23;20578;-71
2023/01/28 04:21:12;;;;;;;6.15;5.55;;;2.50;99.90;;;;;;6209940;23;20268;-71
2023/01/28 04:23:40;;;;;;;5.88;5.32;;;2.50;99.90;;;;;;6238126;23;20652;-70
2023/01/28 04:26:08;;;;;;;5.78;5.18;;;2.50;99.90;;;;;;6239820;23;20202;-71
2023/01/28 04:28:35;;;;;;;6.35;5.75;;;2.70;99.90;;;;;;6202004;23;20760;-70
2023/01/28 04:31:02;;;;;;;6.43;5.82;;;2.50;99.90;;;;;;6204291;23;20639;-71
2023/01/28 04:33:29;;;;;;;6.07;5.47;;;2.50;99.90;;;;;;6228676;23;20218;-70
2023/01/28 04:35:56;;;;;;;6.30;5.70;;;2.50;99.90;;;;;;6209735;23;20190;-70
2023/01/28 04:38:24;;;;;;;6.85;5.95;;;2.40;99.90;;;;;;6192646;23;20230;-71
2023/01/28 04:40:52;;;;;;;6.05;5.47;;;2.40;99.90;;;;;;6187615;23;20718;-71
2023/01/28 04:43:20;;;;;;;6.15;5.57;;;2.40;99.90;;;;;;6207017;23;20264;-71
2023/01/28 04:45:48;;;;;;;6.50;5.90;;;2.40;99.90;;;;;;6192327;23;20228;-73
2023/01/28 04:48:15;;;;;;;6.20;5.60;;;2.40;99.90;;;;;;6188093;23;20623;-71
2023/01/28 04:50:43;;;;;;;7.05;5.78;;;2.50;99.90;;;;;;6202450;23;20194;-72
2023/01/28 04:53:11;;;;;;;6.63;6.05;;;2.50;99.90;;;;;;6209359;23;20433;-72
2023/01/28 04:55:38;;;;;;;6.15;5.55;;;2.50;99.90;;;;;;6187476;23;20202;-71
2023/01/28 04:58:06;;;;;;;8.00;6.75;;;2.50;99.90;;;;;;6191783;23;20551;-71
2023/01/28 05:00:33;;;;;;;7.85;6.97;;;2.50;99.90;;;;;;6179824;23;20649;-74
2023/01/28 05:03:00;;;;;;;6.70;6.07;;;2.50;99.90;;;;;;6188707;23;20363;-72
2023/01/28 05:05:27;;;;;;;6.53;5.45;;;2.50;99.90;;;;;;6187003;23;20186;-71
2023/01/28 05:07:55;;;;;;;6.47;5.90;;;2.50;99.90;;;;;;6192085;23;20620;-72
2023/01/28 05:10:23;;;;;;;6.57;5.97;;;2.40;99.90;;;;;;6216168;23;20275;-71
2023/01/28 05:12:50;;;;;;;7.10;6.13;;;2.40;99.90;;;;;;6189263;23;20509;-72
2023/01/28 05:15:20;;;;;;;6.80;6.00;;;2.40;99.90;;;;;;6180631;23;20190;-71
2023/01/28 05:17:47;;;;;;;6.82;6.18;;;2.40;99.90;;;;;;6191619;23;20295;-72
2023/01/28 05:20:14;;;;;;;7.18;6.47;;;2.40;99.90;;;;;;6190552;23;20272;-72
2023/01/28 05:22:42;;;;;;;6.45;5.85;;;2.40;99.90;;;;;;6206829;23;20207;-72
2023/01/28 05:25:09;;;;;;;7.53;6.82;;;2.40;99.90;;;;;;6194631;23;20220;-70
2023/01/28 05:27:36;;;;;;;7.45;6.75;;;2.40;99.90;;;;;;6183362;23;20518;-71
2023/01/28 05:30:05;;;;;;;7.80;6.95;;;2.40;99.90;;;;;;6181972;23;20994;-71
2023/01/28 05:32:33;;;;;;;7.85;7.15;;;2.40;99.90;;;;;;6189677;23;20221;-69
2023/01/28 05:35:00;;;;;;;7.90;7.05;;;2.50;99.90;;;;;;6203936;23;20262;-70
2023/01/28 05:37:28;;;;;;;7.55;6.82;;;2.50;99.90;;;;;;6200905;23;20287;-70
2023/01/28 05:39:55;;;;;;;7.20;6.57;;;2.50;99.90;;;;;;6208565;23;20189;-70
2023/01/28 05:42:21;;;;;;;7.32;6.63;;;2.50;99.90;;;;;;6188328;23;20190;-70
2023/01/28 05:44:49;;;;;;;6.43;5.82;;;2.40;99.90;;;;;;6206637;23;20232;-74
2023/01/28 05:47:16;;;;;;;7.53;6.70;;;2.40;99.90;;;;;;6190630;23;20635;-70
2023/01/28 05:49:45;;;;;;;7.70;7.00;;;2.40;99.90;;;;;;6202675;23;20187;-70
2023/01/28 05:52:12;;;;;;;7.47;6.80;;;2.50;99.90;;;;;;6205190;23;20185;-71
2023/01/28 05:54:39;;;;;;;7.65;6.95;;;2.40;99.90;;;;;;6189546;23;20190;-71
2023/01/28 05:57:06;;;;;;;7.82;7.20;;;2.40;99.90;;;;;;6196865;23;20288;-71
2023/01/28 05:59:33;;;;;;;7.00;6.30;;;2.40;99.90;;;;;;6198793;23;20212;-71
2023/01/28 06:02:00;;;;;;;7.78;7.07;;;2.40;99.90;;;;;;6208370;23;20183;-71
2023/01/28 06:04:27;;;;;;;7.53;6.72;;;2.50;99.90;;;;;;6191319;23;20185;-71
2023/01/28 06:06:56;;;;;;;7.53;6.82;;;2.50;99.90;;;;;;6196657;23;20289;-71
2023/01/28 06:09:23;;;;;;;7.28;6.57;;;2.50;99.90;;;;;;6207532;23;20262;-71
2023/01/28 06:11:50;;;;;;;8.35;7.55;;;2.50;99.90;;;;;;6182157;23;20220;-71
2023/01/28 06:14:17;;;;;;;7.30;6.57;;;2.40;99.90;;;;;;6200879;23;20219;-71
2023/01/28 06:16:44;;;;;;;7.75;7.05;;;2.40;99.90;;;;;;6193409;23;20287;-71
2023/01/28 06:19:11;;;;;;;7.85;7.05;;;2.40;99.90;;;;;;6202449;23;20196;-70
2023/01/28 06:21:38;;;;;;;7.82;7.10;;;2.40;99.90;;;;;;6197529;23;20267;-71
2023/01/28 06:24:07;;;;;;;7.65;6.85;;;2.50;99.90;;;;;;6201027;23;20184;-71
2023/01/28 06:26:33;;;;;;;8.38;7.55;;;2.50;99.90;;;;;;6200359;23;20207;-71
2023/01/28 06:29:01;;;;;;;7.90;7.10;;;2.50;99.90;;;;;;6200541;23;20188;-71
2023/01/28 06:31:27;;;;;;;7.80;7.10;;;2.50;99.90;;;;;;6194636;23;20305;-71
2023/01/28 06:33:54;;;;;;;8.40;7.63;;;2.50;99.90;;;;;;6195830;23;20225;-71
2023/01/28 06:36:22;;;;;;;9.55;7.68;;;2.50;99.90;;;;;;6198601;23;20296;-71
2023/01/28 06:38:48;;;;;;;7.97;7.25;;;2.50;99.90;;;;;;6210260;23;20187;-71
2023/01/28 06:41:17;;;;;;;8.50;7.70;;;2.50;99.90;;;;;;6203190;23;20232;-70
2023/01/28 06:43:44;;;;;;;9.10;8.20;;;2.50;99.90;;;;;;6199931;23;20224;-71
2023/01/28 06:46:11;;;;;;;8.80;7.95;;;2.50;99.90;;;;;;6209286;23;20202;-70
2023/01/28 06:48:38;;;;;;;8.02;7.32;;;2.40;99.90;;;;;;6188805;23;20260;-71
2023/01/28 06:51:06;;;;;;;8.60;7.70;;;2.40;99.90;;;;;;6195058;23;20263;-70
2023/01/28 06:53:33;;;;;;;9.95;8.45;;;2.40;99.90;;;;;;6200263;23;20227;-71
2023/01/28 06:56:00;;;;;;;7.85;7.15;;;2.50;99.90;;;;;;6204258;23;20248;-72
2023/01/28 06:58:28;;;;;;;8.18;7.38;;;2.50;99.90;;;;;;6206029;23;20187;-71
2023/01/28 07:00:55;;;;;;;9.38;8.43;;;2.50;99.90;;;;;;6205170;23;20815;-71
2023/01/28 07:03:22;;;;;;;8.45;7.65;;;2.50;99.90;;;;;;6206746;23;21788;-72
2023/01/28 07:05:50;;;;;;;9.10;8.23;;;2.50;99.90;;;;;;6196183;23;20215;-71
2023/01/28 07:08:17;;;;;;;8.30;7.55;;;2.50;99.90;;;;;;6199939;23;20200;-71
2023/01/28 07:10:44;;;;;;;8.82;7.95;;;2.50;99.90;;;;;;6192140;23;20176;-71
2023/01/28 07:13:11;;;;;;;9.13;8.23;;;2.50;99.90;;;;;;6186237;23;20230;-72
2023/01/28 07:15:40;;;;;;;8.68;7.72;;;2.50;99.90;;;;;;6188853;23;20567;-71
2023/01/28 07:18:07;;;;;;;7.97;7.28;;;2.50;99.90;;;;;;6179598;23;20220;-71
2023/01/28 07:20:34;;;;;;;8.02;7.32;;;2.50;99.90;;;;;;6205496;23;20263;-72
2023/01/28 07:23:01;;;;;;;8.02;7.22;;;2.50;99.90;;;;;;6206706;23;20276;-72
2023/01/28 07:25:27;;;;;;;8.60;7.80;;;2.50;99.90;;;;;;6184087;23;20195;-72
2023/01/28 07:27:55;;;;;;;8.70;7.90;;;2.50;99.90;;;;;;6190033;23;20217;-72
2023/01/28 07:30:23;;;;;;;8.35;7.57;;;2.60;99.90;;;;;;6207786;23;20217;-72
2023/01/28 07:32:54;;;;;;;8.75;7.93;;;2.60;99.90;;;;;;6238145;23;20620;-71
2023/01/28 07:35:22;;;;;;;8.93;8.02;;;2.60;99.90;;;;;;6209925;23;20284;-72
2023/01/28 07:37:53;;;;;;;10.20;9.15;;;2.60;99.90;;;;;;6209279;23;20715;-72
2023/01/28 07:40:20;;;;;;;10.32;8.90;;;2.60;99.90;;;;;;6203034;23;20658;-72
2023/01/28 07:42:47;;;;;;;9.00;7.70;;;2.70;99.90;;;;;;6205464;23;20245;-71
2023/01/28 07:45:15;;;;;;;7.95;7.15;;;2.70;99.90;;;;;;6214316;23;20189;-72
2023/01/28 07:47:42;;;;;;;8.55;7.75;;;2.70;99.90;;;;;;6209419;23;20206;-72
2023/01/28 07:50:11;;;;;;;9.13;8.23;;;2.70;99.90;;;;;;6187200;23;20185;-71
2023/01/28 07:52:43;;;;;;;8.57;7.78;;;2.70;99.90;;;;;;6203793;23;20639;-71
2023/01/28 07:55:11;;;;;;;9.52;8.63;;;2.70;99.90;;;;;;6203019;23;20630;-71
2023/01/28 07:57:47;;;;;;;9.50;8.55;;;2.70;99.90;;;;;;6179435;23;20211;-71
2023/01/28 08:00:15;;;;;;;9.10;8.20;;;2.70;99.90;;;;;;6204712;23;20252;-71
2023/01/28 08:02:43;;;;;;;9.60;8.70;;;2.80;99.90;;;;;;6210563;23;20266;-71
2023/01/28 08:05:12;;;;;;;9.70;8.80;;;2.80;99.90;;;;;;6209661;23;20264;-71
2023/01/28 08:07:39;;;;;;;8.95;8.05;;;2.80;99.90;;;;;;6206501;23;20776;-70
2023/01/28 08:10:07;;;;;;;8.70;7.80;;;2.80;99.90;;;;;;6219161;23;20193;-71
2023/01/28 08:12:34;;;;;;;9.43;8.52;;;2.80;99.90;;;;;;6215476;23;20191;-71
2023/01/28 08:15:04;;;;;;;9.00;7.20;;;2.80;99.90;;;;;;6190018;23;20779;-74
2023/01/28 08:17:31;;;;;;;8.80;7.90;;;2.90;99.90;;;;;;6189440;23;20208;-72
2023/01/28 08:19:58;;;;;;;9.55;7.93;;;2.90;99.90;;;;;;6196118;23;20188;-73
2023/01/28 08:22:27;;;;;;;8.40;7.60;;;3.00;99.90;;;;;;6196906;23;20264;-71
2023/01/28 08:24:54;;;;;;;8.15;7.43;;;3.10;99.90;;;;;;6205246;23;20234;-72
2023/01/28 08:27:22;;;;;;;8.52;7.72;;;3.10;99.90;;;;;;6207220;23;20223;-72
2023/01/28 08:29:49;;;;;;;8.63;7.82;;;3.10;99.90;;;;;;6188958;23;20629;-70
2023/01/28 08:32:16;;;;;;;8.30;7.50;;;3.20;99.90;;;;;;6197845;23;20264;-71
2023/01/28 08:34:43;;;;;;;10.13;8.70;;;3.20;99.90;;;;;;6208470;23;20213;-72
2023/01/28 08:37:11;;;;;;;9.45;8.55;;;3.30;99.90;;;;;;6202725;23;20280;-72
2023/01/28 08:39:39;;;;;;;9.60;8.68;;;3.30;99.90;;;;;;6193139;23;20610;-72
2023/01/28 08:42:06;;;;;;;9.45;8.55;;;3.40;99.90;;;;;;6195166;23;20187;-72
2023/01/28 08:44:34;;;;;;;9.25;8.45;;;3.40;99.90;;;;;;6197758;23;20604;-72
2023/01/28 08:47:00;;;;;;;9.63;8.73;;;3.40;99.90;;;;;;6201913;23;20221;-72
2023/01/28 08:49:27;;;;;;;9.45;8.55;;;3.50;99.90;;;;;;6202066;23;20791;-72
2023/01/28 08:51:55;;;;;;;10.05;9.13;;;3.50;99.90;;;;;;6204408;23;20235;-72
2023/01/28 08:54:22;;;;;;;10.05;9.05;;;3.50;99.90;;;;;;6183461;23;20574;-72
2023/01/28 08:56:50;;;;;;;9.80;8.90;;;3.60;99.90;;;;;;6178828;23;20252;-72
2023/01/28 08:59:18;;;;;;;10.25;9.25;;;3.60;99.90;;;;;;6179114;23;20189;-72
2023/01/28 09:01:44;;;;;;;10.05;9.05;;;3.70;99.90;;;;;;6189518;23;20260;-72
2023/01/28 09:04:11;;;;;;;15.75;14.23;;;3.70;99.90;;;;;;6206798;23;20182;-72
2023/01/28 09:06:38;;;;;;;13.80;11.82;;;3.80;99.90;;;;;;6208455;23;20576;-72
2023/01/28 09:09:06;;;;;;;12.75;11.55;;;3.90;99.90;;;;;;6197517;23;20211;-72
2023/01/28 09:11:33;;;;;;;11.73;10.68;;;3.90;99.90;;;;;;6209061;23;20617;-72
2023/01/28 09:14:01;;;;;;;10.93;9.80;;;3.90;99.90;;;;;;6207424;23;20292;-72
2023/01/28 09:16:28;;;;;;;13.43;12.13;;;3.90;99.90;;;;;;6209227;23;20253;-72
2023/01/28 09:18:55;;;;;;;14.82;13.52;;;4.00;99.90;;;;;;6209321;23;20715;-71
2023/01/28 09:21:22;;;;;;;14.65;13.20;;;4.00;99.90;;;;;;6207348;23;20640;-71
2023/01/28 09:23:49;;;;;;;11.85;10.65;;;4.00;99.90;;;;;;6197144;23;20280;-72
2023/01/28 09:26:16;;;;;;;11.57;10.57;;;4.10;99.90;;;;;;6214400;23;20208;-72
2023/01/28 09:28:43;;;;;;;11.27;10.15;;;4.10;99.90;;;;;;6231021;23;20198;-71
2023/01/28 09:31:12;;;;;;;12.32;11.13;;;4.10;99.90;;;;;;6208406;23;20293;-71
2023/01/28 09:33:40;;;;;;;11.73;10.63;;;4.10;99.90;;;;;;6208788;23;20185;-72
2023/01/28 09:36:11;;;;;;;12.60;11.35;;;4.10;99.90;;;;;;6204919;23;20247;-72
2023/01/28 09:38:38;;;;;;;11.43;10.23;;;4.10;99.90;;;;;;6232389;23;20260;-72
2023/01/28 09:41:22;;;;;;;10.30;9.30;;;4.20;99.90;;;;;;6203290;23;20234;-71
2023/01/28 09:44:06;;;;;;;10.48;9.40;;;4.10;99.90;;;;;;6198722;23;20197;-72
2023/01/28 09:46:36;;;;;;;11.13;9.98;;;4.20;99.90;;;;;;6205880;23;20213;-72
2023/01/28 09:49:16;;;;;;;11.45;10.30;;;4.20;99.90;;;;;;6210559;23;20200;-71
2023/01/28 09:51:48;;;;;;;11.43;10.23;;;4.20;99.90;;;;;;6196079;23;20264;-72
2023/01/28 09:54:30;;;;;;;11.23;10.13;;;4.20;99.90;;;;;;6210139;23;20198;-72
2023/01/28 09:57:04;;;;;;;11.48;10.20;;;4.20;99.90;;;;;;6199671;23;20756;-71
2023/01/28 09:59:34;;;;;;;11.38;10.25;;;4.20;99.90;;;;;;6199579;23;20176;-72
2023/01/28 10:02:24;;;;;;;12.05;10.73;;;4.30;99.90;;;;;;6199790;23;20621;-72
2023/01/28 10:04:59;;;;;;;12.80;11.50;;;4.20;99.90;;;;;;6179984;23;20609;-71
2023/01/28 10:07:37;;;;;;;11.77;10.65;;;4.20;99.90;;;;;;6199654;23;20185;-72
2023/01/28 10:10:12;;;;;;;12.73;11.27;;;4.20;99.90;;;;;;6210539;23;20185;-71
2023/01/28 10:12:59;;;;;;;15.65;13.48;;;4.20;99.90;;;;;;6191333;23;20192;-72
2023/01/28 10:15:55;;;;;;;20.52;17.33;;;4.10;99.90;;;;;;6182080;23;20225;-69
2023/01/28 10:18:33;;;;;;;21.55;18.05;;;4.10;99.90;;;;;;6203328;23;20640;-71
2023/01/28 10:21:07;;;;;;;20.83;18.58;;;4.10;99.90;;;;;;6207851;23;20609;-72
2023/01/28 10:23:45;;;;;;;18.30;16.20;;;4.00;99.90;;;;;;6209964;23;20664;-72
2023/01/28 10:26:23;;;;;;;14.70;13.23;;;4.00;99.90;;;;;;6206108;23;20255;-72
2023/01/28 10:28:55;;;;;;;13.50;12.10;;;4.00;99.90;;;;;;6179526;23;20189;-72
2023/01/28 10:31:27;;;;;;;12.65;11.40;;;4.10;99.90;;;;;;6198535;23;20260;-71
2023/01/28 10:33:55;;;;;;;14.05;12.60;;;4.10;99.90;;;;;;6210298;23;20178;-71
2023/01/28 10:36:23;;;;;;;11.93;10.45;;;4.10;99.90;;;;;;6202782;23;20231;-72
2023/01/28 10:38:51;;;;;;;12.65;11.45;;;4.20;99.90;;;;;;6208344;23;20238;-72
2023/01/28 10:41:21;;;;;;;12.85;11.63;;;4.20;99.90;;;;;;6198056;23;20200;-73
2023/01/28 10:43:50;;;;;;;12.82;11.55;;;4.20;99.90;;;;;;6211708;23;20561;-71
2023/01/28 10:46:21;;;;;;;13.90;12.57;;;4.30;99.90;;;;;;6209467;23;20205;-72
2023/01/28 10:48:57;;;;;;;12.82;11.57;;;4.30;99.90;;;;;;6208119;23;20538;-71
2023/01/28 10:51:33;;;;;;;13.80;12.40;;;4.30;99.90;;;;;;6201131;23;20268;-72
2023/01/28 10:54:00;;;;;;;13.27;11.32;;;4.40;99.90;;;;;;6209894;23;20185;-71
2023/01/28 10:56:29;;;;;;;12.43;11.15;;;4.40;99.90;;;;;;6202794;23;20252;-72
2023/01/28 10:59:00;;;;;;;12.73;11.43;;;4.50;99.90;;;;;;6203944;23;20268;-72
2023/01/28 11:01:39;;;;;;;12.25;11.05;;;4.60;99.90;;;;;;6236619;23;20669;-71
2023/01/28 11:04:16;;;;;;;12.48;11.27;;;4.80;99.90;;;;;;6240045;23;20535;-71
2023/01/28 11:06:56;;;;;;;11.45;10.30;;;4.90;99.90;;;;;;6239325;23;20580;-71
2023/01/28 11:09:24;;;;;;;11.77;10.57;;;4.90;99.90;;;;;;6202738;23;20188;-71
2023/01/28 11:11:52;;;;;;;12.25;11.00;;;4.90;99.90;;;;;;6190760;23;20205;-71
2023/01/28 11:14:21;;;;;;;11.60;10.40;;;4.90;99.90;;;;;;6205624;23;20237;-71
2023/01/28 11:16:49;;;;;;;11.65;10.43;;;5.00;99.90;;;;;;6209716;23;20201;-72
2023/01/28 11:19:19;;;;;;;12.02;10.73;;;5.00;99.90;;;;;;6195035;23;20192;-69
2023/01/28 11:21:51;;;;;;;12.10;10.90;;;4.90;99.90;;;;;;6183789;23;20189;-71
2023/01/28 11:24:23;;;;;;;10.55;9.45;;;4.90;99.90;;;;;;6197851;23;20181;-70
2023/01/28 11:27:15;;;;;;;13.20;11.20;;;4.80;99.90;;;;;;6190817;23;20210;-70
2023/01/28 11:29:42;;;;;;;12.15;10.85;;;4.70;99.90;;;;;;6197673;23;20185;-70
2023/01/28 11:32:18;;;;;;;12.23;10.93;;;4.70;99.90;;;;;;6196539;23;20642;-71
2023/01/28 11:34:51;;;;;;;12.43;11.15;;;4.60;99.90;;;;;;6209162;23;20200;-71
2023/01/28 11:37:21;;;;;;;11.60;10.38;;;4.60;99.90;;;;;;6197653;23;20193;-70
2023/01/28 11:40:02;;;;;;;13.52;11.27;;;4.50;99.90;;;;;;6196923;23;20190;-71
2023/01/28 11:42:39;;;;;;;14.45;11.85;;;4.40;99.90;;;;;;6205656;23;20260;-71
2023/01/28 11:45:15;;;;;;;11.93;10.73;;;4.40;99.90;;;;;;6184385;23;20263;-71
2023/01/28 11:47:54;;;;;;;13.00;11.60;;;4.30;99.90;;;;;;6190176;23;20207;-71
2023/01/28 11:50:35;;;;;;;12.60;11.30;;;4.20;99.90;;;;;;6193135;23;20253;-71
2023/01/28 11:53:39;;;;;;;13.63;10.80;;;4.10;99.90;;;;;;6197296;23;20263;-71
2023/01/28 11:56:22;;;;;;;13.30;11.65;;;4.10;99.90;;;;;;6197526;23;20208;-71
2023/01/28 11:58:57;;;;;;;13.75;12.35;;;4.00;99.90;;;;;;6186151;23;20189;-71
2023/01/28 12:01:32;;;;;;;14.48;12.98;;;4.00;99.90;;;;;;6199707;23;20195;-71
2023/01/28 12:04:34;;;;;;;13.27;11.57;;;4.00;99.90;;;;;;6197907;23;20790;-71
2023/01/28 12:07:16;;;;;;;13.43;11.10;;;4.00;99.90;;;;;;6207704;23;20283;-71
2023/01/28 12:09:51;;;;;;;11.68;10.40;;;4.00;99.90;;;;;;6203371;23;20185;-70
2023/01/28 12:12:44;;;;;;;11.75;10.55;;;4.00;99.90;;;;;;6189722;23;20201;-71
2023/01/28 12:15:48;;;;;;;10.80;9.43;;;4.00;99.90;;;;;;6205530;23;20246;-71
2023/01/28 12:18:31;;;;;;;10.55;9.32;;;3.90;99.90;;;;;;6148552;23;20256;-71
2023/01/28 12:21:07;;;;;;;10.80;9.70;;;3.90;99.90;;;;;;6195542;23;20188;-71
2023/01/28 12:23:47;;;;;;;9.88;8.88;;;3.80;99.90;;;;;;6201268;23;20192;-70
2023/01/28 12:26:19;;;;;;;11.60;9.13;;;3.80;99.90;;;;;;6190256;23;20254;-71
2023/01/28 12:29:00;;;;;;;10.35;9.15;;;3.80;99.90;;;;;;6188071;23;20601;-70
2023/01/28 12:31:53;;;;;;;10.25;9.15;;;3.70;99.90;;;;;;6184131;23;20182;-71
2023/01/28 12:34:52;;;;;;;10.93;9.82;;;3.60;99.90;;;;;;6200018;23;20657;-70
2023/01/28 12:37:27;;;;;;;10.57;9.05;;;3.60;99.90;;;;;;6181269;23;20672;-70
2023/01/28 12:40:10;;;;;;;10.00;9.00;;;3.60;99.90;;;;;;6192855;23;20181;-71
2023/01/28 12:42:41;;;;;;;9.60;8.70;;;3.60;99.90;;;;;;6194527;23;20187;-70
2023/01/28 12:45:16;;;;;;;9.05;8.15;;;3.50;99.90;;;;;;6197488;23;20694;-70
2023/01/28 12:47:49;;;;;;;9.55;8.32;;;3.50;99.90;;;;;;6197310;23;20176;-71
2023/01/28 12:50:23;;;;;;;12.23;9.45;;;3.50;99.90;;;;;;6196158;23;20595;-70
2023/01/28 12:52:55;;;;;;;10.60;8.73;;;3.40;99.90;;;;;;6201216;23;20667;-70
2023/01/28 12:55:36;;;;;;;11.73;9.95;;;3.40;99.90;;;;;;6200900;23;20212;-71
2023/01/28 12:58:06;;;;;;;10.63;9.30;;;3.40;99.90;;;;;;6189704;23;20181;-71
2023/01/28 13:00:36;;;;;;;10.52;9.48;;;3.40;99.90;;;;;;6202560;23;20529;-70
2023/01/28 13:03:11;;;;;;;12.35;9.95;;;3.40;99.90;;;;;;6204172;23;20191;-70
2023/01/28 13:05:42;;;;;;;10.32;8.95;;;3.30;99.90;;;;;;6202262;23;20746;-70
2023/01/28 13:08:17;;;;;;;10.88;9.85;;;3.30;99.90;;;;;;6188944;23;20487;-71
2023/01/28 13:10:46;;;;;;;10.60;9.50;;;3.20;99.90;;;;;;6204913;23;20216;-70
2023/01/28 13:13:18;;;;;;;12.20;9.98;;;3.20;99.90;;;;;;6205255;23;20181;-70
2023/01/28 13:15:45;;;;;;;10.90;9.38;;;3.10;99.90;;;;;;6202427;23;20228;-70
2023/01/28 13:18:30;;;;;;;11.38;10.10;;;3.10;99.90;;;;;;6198935;23;20185;-70
2023/01/28 13:20:58;;;;;;;9.93;8.93;;;3.10;99.90;;;;;;6193562;23;20188;-69
2023/01/28 13:23:26;;;;;;;11.27;10.07;;;3.10;99.90;;;;;;6198977;23;20219;-71
2023/01/28 13:25:56;;;;;;;11.90;10.70;;;3.10;99.90;;;;;;6199158;23;20245;-70
2023/01/28 13:28:29;;;;;;;12.00;10.80;;;3.10;99.90;;;;;;6185430;23;20222;-69
2023/01/28 13:31:03;;;;;;;11.35;10.20;;;3.10;99.90;;;;;;6184155;23;20650;-70
2023/01/28 13:33:33;;;;;;;11.20;9.98;;;3.20;99.90;;;;;;6195700;23;20185;-70
2023/01/28 13:36:09;;;;;;;11.20;10.10;;;3.20;99.90;;;;;;6202538;23;20270;-70
2023/01/28 13:38:36;;;;;;;13.30;12.00;;;3.20;99.90;;;;;;6180556;23;20211;-70
2023/01/28 13:41:05;;;;;;;11.95;10.65;;;3.20;99.90;;;;;;6178465;23;20713;-70
2023/01/28 13:43:38;;;;;;;11.05;10.05;;;3.30;99.90;;;;;;6188338;23;20193;-71
2023/01/28 13:46:07;;;;;;;11.63;10.63;;;3.30;99.90;;;;;;6191499;23;20288;-71